Time;durP1;ratioP1;P1;durP2;ratioP2;P2;SDS_P1;SDS_P2;PMS_P1;PMS_P2;Temp;Humidity;BMP_temperature;BMP_pressure;BME280_temperature;BME280_humidity;BME280_pressure;Samples;Min_cycle;Max_cycle;Signal;HPM_P1;HPM_P2
2022/05/25 00:00:25;;;;;;;6.47;4.97;;;10.30;99.90;;;;;;5040313;28;20049;-71
2022/05/25 00:02:52;;;;;;;6.03;4.72;;;10.30;99.90;;;;;;5053566;28;20028;-71
2022/05/25 00:05:19;;;;;;;7.30;5.50;;;10.30;99.90;;;;;;5055588;28;20470;-71
2022/05/25 00:07:45;;;;;;;7.85;6.65;;;10.30;99.90;;;;;;5051825;28;20479;-71
2022/05/25 00:10:11;;;;;;;8.90;6.25;;;10.30;99.90;;;;;;5055051;28;20032;-71
2022/05/25 00:12:38;;;;;;;7.32;6.53;;;10.40;99.90;;;;;;5086432;28;20110;-71
2022/05/25 00:15:05;;;;;;;7.82;5.03;;;10.40;99.90;;;;;;5054610;28;20036;-71
2022/05/25 00:17:32;;;;;;;8.75;6.07;;;10.30;99.90;;;;;;5059379;28;20048;-71
2022/05/25 00:20:00;;;;;;;8.75;5.90;;;10.40;99.90;;;;;;5054537;28;20072;-71
2022/05/25 00:22:29;;;;;;;10.10;5.78;;;10.40;99.90;;;;;;5051771;28;20076;-71
2022/05/25 00:24:57;;;;;;;6.25;5.78;;;10.40;99.90;;;;;;5082295;28;20051;-71
2022/05/25 00:27:23;;;;;;;9.07;5.63;;;10.40;99.90;;;;;;5085616;28;20166;-71
2022/05/25 00:29:48;;;;;;;7.57;5.88;;;10.40;99.90;;;;;;5055431;28;20127;-71
2022/05/25 00:32:14;;;;;;;6.90;6.13;;;10.30;99.90;;;;;;5053883;28;20051;-71
2022/05/25 00:34:39;;;;;;;6.32;5.63;;;10.30;99.90;;;;;;5057177;28;20406;-71
2022/05/25 00:37:05;;;;;;;8.05;6.55;;;10.30;99.90;;;;;;5052573;28;20071;-72
2022/05/25 00:39:31;;;;;;;6.90;6.15;;;10.40;99.90;;;;;;5056358;28;20045;-71
2022/05/25 00:41:56;;;;;;;7.25;5.90;;;10.30;99.90;;;;;;5051632;28;21813;-71
2022/05/25 00:44:22;;;;;;;8.68;5.68;;;10.30;99.90;;;;;;5056949;28;20106;-71
2022/05/25 00:46:48;;;;;;;7.03;6.43;;;10.30;99.90;;;;;;5034973;28;20048;-71
2022/05/25 00:49:29;;;;;;;6.18;5.70;;;10.30;99.90;;;;;;5056161;28;20112;-71
2022/05/25 00:52:04;;;;;;;8.27;6.53;;;10.30;99.90;;;;;;5060070;28;20483;-71
2022/05/25 00:54:47;;;;;;;11.77;7.28;;;10.30;99.90;;;;;;5068017;28;20044;-71
2022/05/25 00:57:43;;;;;;;11.93;6.80;;;10.30;99.90;;;;;;5053125;28;20040;-71
2022/05/25 01:00:10;;;;;;;9.93;6.13;;;10.30;99.90;;;;;;5084900;28;20057;-71
2022/05/25 01:02:40;;;;;;;7.13;6.45;;;10.30;99.90;;;;;;5055268;28;20336;-71
2022/05/25 01:05:07;;;;;;;8.63;6.20;;;10.30;99.90;;;;;;5058343;28;20037;-71
2022/05/25 01:07:40;;;;;;;11.13;7.03;;;10.20;99.90;;;;;;5056416;28;20036;-71
2022/05/25 01:10:32;;;;;;;7.68;6.53;;;10.30;99.90;;;;;;5054270;28;20049;-71
2022/05/25 01:13:11;;;;;;;9.70;7.70;;;10.30;99.90;;;;;;5054553;28;20049;-71
2022/05/25 01:15:43;;;;;;;6.88;6.18;;;10.20;99.90;;;;;;5052809;28;20521;-71
2022/05/25 01:18:11;;;;;;;6.82;6.20;;;10.20;99.90;;;;;;5054453;28;20059;-71
2022/05/25 01:20:46;;;;;;;6.47;5.88;;;10.20;99.90;;;;;;5057313;28;20064;-71
2022/05/25 01:23:51;;;;;;;6.90;6.20;;;10.30;99.90;;;;;;5055936;28;20215;-71
2022/05/25 01:26:32;;;;;;;7.60;6.78;;;10.20;99.90;;;;;;5072394;28;20039;-71
2022/05/25 01:29:27;;;;;;;10.02;7.13;;;10.20;99.90;;;;;;5058088;28;20114;-71
2022/05/25 01:32:01;;;;;;;6.82;6.13;;;10.20;99.90;;;;;;5058101;28;20086;-71
2022/05/25 01:34:54;;;;;;;7.35;6.32;;;10.20;99.90;;;;;;5055758;28;20037;-71
2022/05/25 01:37:37;;;;;;;6.97;6.28;;;10.20;99.90;;;;;;5055953;28;20032;-71
2022/05/25 01:40:31;;;;;;;7.13;6.45;;;10.20;99.90;;;;;;5057886;28;20517;-71
2022/05/25 01:43:08;;;;;;;7.68;6.93;;;10.10;99.90;;;;;;5056395;28;20044;-71
2022/05/25 01:45:42;;;;;;;8.68;6.93;;;10.10;99.90;;;;;;5042187;28;20486;-71
2022/05/25 01:48:10;;;;;;;7.57;6.88;;;10.10;99.90;;;;;;5060186;28;20053;-71
2022/05/25 01:50:42;;;;;;;8.63;6.80;;;10.00;99.90;;;;;;5057730;28;20036;-71
2022/05/25 01:53:11;;;;;;;8.20;7.45;;;10.00;99.90;;;;;;5053514;28;20033;-71
2022/05/25 01:55:46;;;;;;;7.80;6.28;;;10.10;99.90;;;;;;5053403;28;20065;-71
2022/05/25 01:58:15;;;;;;;7.55;6.80;;;10.00;99.90;;;;;;5051370;28;20043;-71
2022/05/25 02:00:54;;;;;;;7.28;6.68;;;10.00;99.90;;;;;;5052247;28;20436;-71
2022/05/25 02:06:29;;;;;;;8.07;7.38;;;10.00;99.90;;;;;;5053808;28;20040;-71
2022/05/25 02:09:19;;;;;;;8.43;6.97;;;10.00;99.90;;;;;;5055148;28;20139;-71
2022/05/25 02:11:48;;;;;;;8.27;7.47;;;9.90;99.90;;;;;;5053500;28;20036;-71
2022/05/25 02:14:34;;;;;;;9.20;7.03;;;10.00;99.90;;;;;;5055005;28;20122;-71
2022/05/25 02:17:28;;;;;;;7.82;7.13;;;9.90;99.90;;;;;;5054426;28;20044;-71
2022/05/25 02:20:14;;;;;;;8.65;7.78;;;9.90;99.90;;;;;;5054877;28;20041;-71
2022/05/25 02:22:45;;;;;;;8.27;7.43;;;9.90;99.90;;;;;;5055837;28;20033;-71
2022/05/25 02:25:33;;;;;;;8.27;7.50;;;9.90;99.90;;;;;;5058043;28;20497;-72
2022/05/25 02:28:17;;;;;;;12.60;7.78;;;9.90;99.90;;;;;;5056325;28;20134;-71
2022/05/25 02:30:50;;;;;;;9.65;7.35;;;9.90;99.90;;;;;;5055255;28;20086;-71
2022/05/25 02:33:23;;;;;;;10.25;9.30;;;9.90;99.90;;;;;;5071479;28;21061;-71
2022/05/25 02:35:49;;;;;;;10.60;9.57;;;9.90;99.90;;;;;;5054361;28;20506;-71
2022/05/25 02:38:15;;;;;;;10.25;9.35;;;9.80;99.90;;;;;;5057520;28;20519;-71
2022/05/25 02:40:41;;;;;;;9.60;8.77;;;9.90;99.90;;;;;;5055961;28;20032;-71
2022/05/25 02:43:08;;;;;;;9.57;8.65;;;9.90;99.90;;;;;;5056881;28;20699;-71
2022/05/25 02:45:35;;;;;;;10.57;9.57;;;9.90;99.90;;;;;;5055168;28;20445;-71
2022/05/25 02:48:01;;;;;;;11.43;9.90;;;9.80;99.90;;;;;;5054988;28;20119;-71
2022/05/25 02:50:27;;;;;;;17.85;10.18;;;9.80;99.90;;;;;;5057809;28;20044;-71
2022/05/25 02:52:52;;;;;;;12.75;10.10;;;9.80;99.90;;;;;;5056335;28;20048;-71
2022/05/25 02:55:18;;;;;;;11.07;9.95;;;9.80;99.90;;;;;;5053960;28;20033;-71
2022/05/25 02:57:44;;;;;;;12.07;10.85;;;9.80;99.90;;;;;;5086303;28;20044;-71
2022/05/25 03:00:11;;;;;;;11.02;10.02;;;9.80;99.90;;;;;;5089494;28;20497;-71
2022/05/25 03:02:37;;;;;;;11.40;10.35;;;9.80;99.90;;;;;;5057837;28;20056;-71
2022/05/25 03:05:04;;;;;;;13.85;11.15;;;9.80;99.90;;;;;;5058488;28;20650;-71
2022/05/25 03:07:30;;;;;;;11.30;10.13;;;9.80;99.90;;;;;;5055523;28;20510;-71
2022/05/25 03:09:56;;;;;;;12.40;10.23;;;9.80;99.90;;;;;;5057960;28;20032;-71
2022/05/25 03:12:21;;;;;;;12.57;11.27;;;9.80;99.90;;;;;;5052211;28;20514;-71
2022/05/25 03:14:48;;;;;;;11.57;10.55;;;9.80;99.90;;;;;;5053094;28;20383;-71
2022/05/25 03:17:14;;;;;;;11.68;10.50;;;9.80;99.90;;;;;;5086248;27;20044;-71
2022/05/25 03:19:50;;;;;;;12.10;11.00;;;9.80;99.90;;;;;;5052259;28;20040;-71
2022/05/25 03:22:15;;;;;;;11.30;10.23;;;9.80;99.90;;;;;;5052653;28;20379;-71
2022/05/25 03:24:41;;;;;;;11.73;10.52;;;9.70;99.90;;;;;;5055447;28;20037;-71
2022/05/25 03:27:07;;;;;;;14.05;10.95;;;9.80;99.90;;;;;;5055985;28;20036;-71
2022/05/25 03:29:33;;;;;;;14.45;10.77;;;9.80;99.90;;;;;;5052067;28;20052;-71
2022/05/25 03:32:00;;;;;;;11.60;10.55;;;9.80;99.90;;;;;;5057727;28;22044;-71
2022/05/25 03:34:26;;;;;;;11.77;10.60;;;9.80;99.90;;;;;;5058582;28;20071;-71
2022/05/25 03:36:54;;;;;;;13.40;11.40;;;9.80;99.90;;;;;;5050653;28;20485;-71
2022/05/25 03:39:22;;;;;;;12.90;11.70;;;9.80;99.90;;;;;;5053251;28;20041;-71
2022/05/25 03:41:52;;;;;;;11.70;10.70;;;9.80;99.90;;;;;;5054592;28;20390;-71
2022/05/25 03:44:19;;;;;;;12.27;10.75;;;9.80;99.90;;;;;;5057775;28;20052;-72
2022/05/25 03:46:45;;;;;;;13.50;11.27;;;9.80;99.90;;;;;;5087869;28;20053;-71
2022/05/25 03:49:11;;;;;;;13.73;11.57;;;9.80;99.90;;;;;;5085520;28;20541;-71
2022/05/25 03:51:37;;;;;;;13.82;9.82;;;9.80;99.90;;;;;;5054140;28;20051;-71
2022/05/25 03:54:02;;;;;;;16.20;11.73;;;9.90;99.90;;;;;;5054266;28;20056;-71
2022/05/25 03:56:28;;;;;;;13.23;11.25;;;9.90;99.90;;;;;;5057410;28;20048;-71
2022/05/25 03:58:54;;;;;;;13.10;11.73;;;9.90;99.90;;;;;;5055189;28;20063;-71
2022/05/25 04:01:19;;;;;;;13.70;11.32;;;9.90;99.90;;;;;;5056059;28;20506;-71
2022/05/25 04:03:45;;;;;;;13.05;9.95;;;10.00;99.90;;;;;;5054690;28;20389;-71
2022/05/25 04:06:10;;;;;;;9.95;8.80;;;10.40;99.90;;;;;;5057190;28;20036;-71
2022/05/25 04:08:36;;;;;;;8.93;8.02;;;11.20;99.90;;;;;;5038196;28;20040;-71
2022/05/25 04:11:02;;;;;;;8.10;7.40;;;12.10;99.90;;;;;;5054183;28;20048;-71
2022/05/25 04:13:27;;;;;;;8.20;7.30;;;12.90;99.90;;;;;;5055434;28;20056;-71
2022/05/25 04:15:53;;;;;;;6.60;6.00;;;13.70;99.90;;;;;;5050376;28;20048;-71
2022/05/25 04:18:18;;;;;;;7.32;6.07;;;14.60;99.90;;;;;;5053195;28;20048;-71
2022/05/25 04:20:44;;;;;;;6.95;5.75;;;15.30;99.90;;;;;;5048530;28;20047;-71
2022/05/25 04:23:11;;;;;;;6.32;5.68;;;16.10;99.90;;;;;;5052525;28;20044;-71
2022/05/25 04:25:38;;;;;;;8.18;5.47;;;16.70;99.90;;;;;;5054785;28;20494;-71
2022/05/25 04:28:05;;;;;;;5.25;4.75;;;17.40;99.90;;;;;;5053526;28;21052;-71
2022/05/25 04:30:30;;;;;;;6.07;5.47;;;18.00;99.90;;;;;;5052440;28;20053;-70
2022/05/25 04:32:56;;;;;;;6.20;5.18;;;18.50;99.90;;;;;;5052137;28;20371;-71
2022/05/25 04:35:26;;;;;;;7.55;5.90;;;18.90;99.90;;;;;;5055571;28;20044;-71
2022/05/25 04:37:52;;;;;;;5.78;5.28;;;18.90;99.90;;;;;;5049830;28;20377;-71
2022/05/25 04:40:37;;;;;;;9.18;6.10;;;18.40;99.90;;;;;;5053396;28;20464;-71
2022/05/25 04:43:12;;;;;;;7.63;5.43;;;18.40;99.90;;;;;;5052044;28;21874;-71
2022/05/25 04:45:39;;;;;;;6.50;5.90;;;17.90;99.90;;;;;;5056980;28;20154;-71
2022/05/25 04:48:05;;;;;;;8.07;6.53;;;17.10;99.90;;;;;;5059604;28;20060;-71
2022/05/25 04:50:40;;;;;;;7.85;6.55;;;16.50;99.90;;;;;;5058217;28;20080;-71
2022/05/25 04:53:07;;;;;;;7.03;6.43;;;16.20;99.90;;;;;;5059857;28;20037;-71
2022/05/25 04:58:29;;;;;;;10.07;7.15;;;15.60;99.90;;;;;;5056660;28;20044;-71
2022/05/25 05:00:55;;;;;;;8.00;7.20;;;15.10;99.90;;;;;;5063427;28;20063;-71
2022/05/25 05:03:23;;;;;;;8.18;7.38;;;14.70;99.90;;;;;;5061352;28;20490;-71
2022/05/25 05:05:50;;;;;;;11.20;7.10;;;14.60;99.90;;;;;;5061227;28;20478;-71
2022/05/25 05:08:16;;;;;;;12.05;6.88;;;14.50;99.90;;;;;;5061005;28;20055;-71
2022/05/25 05:10:42;;;;;;;7.45;6.43;;;15.20;99.90;;;;;;5058990;28;20548;-71
2022/05/25 05:13:08;;;;;;;10.75;6.10;;;16.60;99.90;;;;;;5057886;28;20044;-71
2022/05/25 05:15:36;;;;;;;6.72;6.05;;;18.10;99.90;;;;;;5060849;28;20043;-71
2022/05/25 05:18:02;;;;;;;8.18;6.30;;;19.50;99.90;;;;;;5060305;28;20127;-70
2022/05/25 05:20:29;;;;;;;6.97;6.25;;;20.90;99.90;;;;;;5062325;28;20525;-70
2022/05/25 05:22:54;;;;;;;9.13;5.45;;;21.80;99.90;;;;;;5091495;28;20056;-71
2022/05/25 05:25:20;;;;;;;9.30;5.45;;;22.60;99.90;;;;;;5061281;28;20048;-71
2022/05/25 05:27:46;;;;;;;8.95;5.57;;;23.20;99.90;;;;;;5060659;28;20041;-71
2022/05/25 05:30:15;;;;;;;6.28;4.93;;;23.60;99.90;;;;;;5091986;28;20514;-71
2022/05/25 05:32:40;;;;;;;5.95;5.30;;;24.20;99.90;;;;;;5073671;28;20039;-71
2022/05/25 05:35:06;;;;;;;6.22;5.63;;;24.60;99.90;;;;;;5066387;28;20568;-71
2022/05/25 05:37:48;;;;;;;7.30;5.28;;;24.50;99.90;;;;;;5062802;28;20041;-71
2022/05/25 05:40:17;;;;;;;5.97;4.70;;;23.80;99.90;;;;;;5063185;28;20524;-71
2022/05/25 05:42:46;;;;;;;5.70;4.85;;;22.70;99.90;;;;;;5062715;28;20048;-71
2022/05/25 05:45:18;;;;;;;6.00;5.10;;;21.90;99.90;;;;;;5061791;28;20039;-71
2022/05/25 05:48:10;;;;;;;11.25;5.57;;;21.20;99.90;;;;;;5059468;28;20163;-71
2022/05/25 05:50:38;;;;;;;8.88;5.20;;;20.70;99.90;;;;;;5061195;28;20048;-71
2022/05/25 05:53:06;;;;;;;10.98;5.28;;;20.30;99.90;;;;;;5061923;28;20051;-71
2022/05/25 05:55:33;;;;;;;10.02;5.15;;;19.90;99.90;;;;;;5064738;28;20048;-71
2022/05/25 05:57:59;;;;;;;10.68;5.60;;;19.90;99.90;;;;;;5061827;28;20033;-71
2022/05/25 06:00:24;;;;;;;8.63;5.18;;;19.80;99.90;;;;;;5061333;28;20509;-71
2022/05/25 06:02:50;;;;;;;5.38;4.88;;;19.60;99.90;;;;;;5061441;28;20470;-71
2022/05/25 06:05:16;;;;;;;8.52;6.28;;;19.60;99.90;;;;;;5062241;28;20044;-71
2022/05/25 06:07:42;;;;;;;7.18;5.22;;;19.50;99.90;;;;;;5063629;28;20036;-71
2022/05/25 06:10:09;;;;;;;5.80;4.70;;;19.50;99.90;;;;;;5060870;28;20032;-71
2022/05/25 06:12:35;;;;;;;7.55;5.43;;;19.50;99.90;;;;;;5061487;28;20067;-72
2022/05/25 06:19:25;;;;;;;8.73;5.40;;;19.40;99.90;;;;;;5061577;28;20169;-72
2022/05/25 06:20:31;;;;;;;11.73;7.05;;;19.30;99.90;;;;;;5058230;28;20082;-72
2022/05/25 06:22:56;;;;;;;8.07;5.70;;;19.30;99.90;;;;;;5061721;28;20391;-72
2022/05/25 06:25:22;;;;;;;10.90;6.18;;;19.30;99.90;;;;;;5059647;28;20040;-72
2022/05/25 06:27:47;;;;;;;6.90;5.72;;;19.40;99.90;;;;;;5074113;28;20078;-72
2022/05/25 06:30:13;;;;;;;8.63;5.75;;;19.50;99.90;;;;;;5059440;28;20052;-72
2022/05/25 06:32:39;;;;;;;8.90;6.00;;;19.70;99.90;;;;;;5057039;28;20044;-72
2022/05/25 06:35:05;;;;;;;8.07;5.75;;;19.60;99.90;;;;;;5060478;28;20056;-72
2022/05/25 06:37:31;;;;;;;11.32;5.90;;;19.60;99.90;;;;;;5059952;28;20070;-72
2022/05/25 06:39:56;;;;;;;8.00;6.28;;;19.70;99.90;;;;;;5060396;28;20485;-72
2022/05/25 06:42:22;;;;;;;12.68;5.75;;;19.80;99.90;;;;;;5059859;28;20036;-72
2022/05/25 06:44:48;;;;;;;13.40;5.93;;;19.90;99.90;;;;;;5061613;28;20099;-72
2022/05/25 06:47:18;;;;;;;9.23;5.82;;;19.90;99.90;;;;;;5089848;28;20508;-72
2022/05/25 06:49:44;;;;;;;7.25;5.90;;;20.00;99.90;;;;;;5060488;28;20370;-72
2022/05/25 06:52:11;;;;;;;6.35;5.68;;;20.00;99.90;;;;;;5091210;27;20554;-72
2022/05/25 06:54:37;;;;;;;7.47;6.18;;;20.10;99.90;;;;;;5061560;28;20052;-73
2022/05/25 06:57:03;;;;;;;10.10;5.95;;;20.10;99.90;;;;;;5060321;28;20413;-73
2022/05/25 06:59:29;;;;;;;8.70;7.15;;;20.10;99.90;;;;;;5059437;28;20040;-70
2022/05/25 07:01:55;;;;;;;7.60;5.78;;;20.20;99.90;;;;;;5058057;28;20473;-70
2022/05/25 07:04:21;;;;;;;8.80;6.30;;;20.30;99.90;;;;;;5075578;28;20041;-70
2022/05/25 07:06:48;;;;;;;12.57;6.78;;;20.30;99.90;;;;;;5057115;28;20057;-72
2022/05/25 07:09:13;;;;;;;11.45;6.07;;;20.30;99.90;;;;;;5057754;28;20040;-72
2022/05/25 07:11:42;;;;;;;7.22;5.95;;;20.00;99.90;;;;;;5059770;28;20093;-72
2022/05/25 07:14:09;;;;;;;9.07;5.85;;;20.00;99.90;;;;;;5061670;28;20090;-72
2022/05/25 07:16:35;;;;;;;10.15;6.03;;;19.80;99.90;;;;;;5059018;28;20036;-72
2022/05/25 07:19:01;;;;;;;8.88;5.22;;;19.90;99.90;;;;;;5057554;28;20142;-72
2022/05/25 07:21:49;;;;;;;6.65;5.88;;;20.10;99.90;;;;;;5078250;27;20438;-72
2022/05/25 07:24:15;;;;;;;7.88;5.85;;;20.10;99.90;;;;;;5071209;28;20112;-72
2022/05/25 07:26:41;;;;;;;10.82;5.28;;;20.10;99.90;;;;;;5056010;28;20036;-72
2022/05/25 07:29:06;;;;;;;6.63;5.07;;;20.10;99.90;;;;;;5076607;28;20040;-72
2022/05/25 07:31:55;;;;;;;10.85;4.65;;;20.20;99.90;;;;;;5080176;28;20044;-72
2022/05/25 07:34:28;;;;;;;7.18;4.22;;;20.30;99.90;;;;;;5078265;28;20500;-72
2022/05/25 07:37:00;;;;;;;7.60;4.40;;;20.50;99.90;;;;;;5076609;28;20058;-72
2022/05/25 07:39:32;;;;;;;9.23;5.35;;;20.60;99.90;;;;;;5079122;28;20033;-72
2022/05/25 07:42:00;;;;;;;6.25;3.55;;;20.80;99.90;;;;;;5110484;27;20120;-72
2022/05/25 07:44:32;;;;;;;6.82;3.72;;;20.80;99.90;;;;;;5078192;28;20064;-72
2022/05/25 07:46:57;;;;;;;6.10;4.00;;;21.00;99.90;;;;;;5078480;28;20522;-72
2022/05/25 07:49:26;;;;;;;4.90;4.07;;;21.10;99.90;;;;;;5076184;28;20028;-71
2022/05/25 07:51:53;;;;;;;4.90;3.67;;;21.10;99.90;;;;;;5105488;27;20044;-72
2022/05/25 07:54:19;;;;;;;6.07;3.53;;;21.00;99.90;;;;;;5074887;28;20123;-72
2022/05/25 07:56:44;;;;;;;5.82;3.08;;;20.80;99.90;;;;;;5075292;28;20039;-72
2022/05/25 07:59:13;;;;;;;7.22;3.58;;;20.80;99.90;;;;;;5076052;28;20036;-72
2022/05/25 08:07:22;;;;;;;5.68;4.00;;;20.90;99.90;;;;;;5079501;28;20180;-72
2022/05/25 08:09:51;;;;;;;5.00;3.00;;;21.00;99.90;;;;;;5075775;28;20036;-72
2022/05/25 08:12:17;;;;;;;11.77;3.72;;;20.90;99.90;;;;;;5077564;28;20653;-72
2022/05/25 08:14:43;;;;;;;4.68;3.55;;;20.90;99.90;;;;;;5076826;28;20039;-72
2022/05/25 08:17:09;;;;;;;6.10;3.67;;;20.90;99.90;;;;;;5076657;28;20043;-72
2022/05/25 08:19:35;;;;;;;6.93;3.17;;;20.80;99.90;;;;;;5071201;28;20045;-71
2022/05/25 08:22:02;;;;;;;5.90;3.22;;;20.80;99.90;;;;;;5072401;28;20116;-71
2022/05/25 08:24:31;;;;;;;8.25;3.17;;;20.80;99.90;;;;;;5091647;28;20040;-71
2022/05/25 08:26:56;;;;;;;3.88;2.97;;;20.70;99.90;;;;;;5075349;28;20032;-71
2022/05/25 08:29:25;;;;;;;8.05;2.67;;;20.60;99.90;;;;;;5071238;28;20040;-72
2022/05/25 08:31:55;;;;;;;6.32;3.20;;;20.70;99.90;;;;;;5069567;28;20131;-71
2022/05/25 08:34:28;;;;;;;6.93;3.60;;;20.90;99.90;;;;;;5059843;28;20049;-71
2022/05/25 08:36:54;;;;;;;5.90;2.97;;;21.10;99.90;;;;;;5059224;28;20667;-71
2022/05/25 08:39:20;;;;;;;8.45;3.00;;;21.10;99.90;;;;;;5062339;28;20055;-71
2022/05/25 08:41:50;;;;;;;12.27;2.80;;;21.00;99.90;;;;;;5060897;28;20404;-71
2022/05/25 08:44:15;;;;;;;2.33;2.08;;;20.80;99.90;;;;;;5060076;28;20032;-71
2022/05/25 08:46:42;;;;;;;5.97;2.38;;;20.80;99.90;;;;;;5064257;28;20046;-70
2022/05/25 08:49:12;;;;;;;5.60;2.58;;;20.70;99.90;;;;;;5064144;28;20036;-72
2022/05/25 08:51:50;;;;;;;7.18;2.33;;;20.70;99.90;;;;;;5073527;28;20072;-71
2022/05/25 08:54:18;;;;;;;3.30;1.67;;;20.50;99.90;;;;;;5066025;28;20116;-71
2022/05/25 08:56:49;;;;;;;9.15;2.53;;;20.40;99.90;;;;;;5059875;28;20167;-71
2022/05/25 08:59:37;;;;;;;5.50;2.35;;;20.40;99.90;;;;;;5061203;28;20051;-71
2022/05/25 09:02:17;;;;;;;4.85;2.17;;;20.40;99.90;;;;;;5063930;28;20136;-71
2022/05/25 09:05:02;;;;;;;5.22;2.53;;;20.30;99.90;;;;;;5061624;28;20045;-71
2022/05/25 09:07:58;;;;;;;3.75;2.00;;;20.50;99.90;;;;;;5059821;28;20048;-71
2022/05/25 09:10:27;;;;;;;14.00;2.45;;;20.50;99.90;;;;;;5059134;28;20047;-71
2022/05/25 09:12:58;;;;;;;4.07;2.30;;;20.40;99.90;;;;;;5063750;28;20045;-71
2022/05/25 09:16:15;;;;;;;6.38;2.35;;;20.40;99.90;;;;;;5058989;28;20055;-71
2022/05/25 09:18:33;;;;;;;6.57;2.40;;;20.20;99.90;;;;;;5066324;28;20702;-71
2022/05/25 09:21:03;;;;;;;2.67;2.05;;;20.10;99.90;;;;;;5061319;28;20040;-71
2022/05/25 09:23:29;;;;;;;5.30;1.95;;;20.00;99.90;;;;;;5057934;28;20036;-71
2022/05/25 09:25:56;;;;;;;4.40;2.20;;;20.10;99.90;;;;;;5070189;28;20728;-71
2022/05/25 09:28:28;;;;;;;4.22;2.13;;;20.00;99.90;;;;;;5062967;28;20029;-71
2022/05/25 09:30:56;;;;;;;4.00;1.83;;;20.00;99.90;;;;;;5058169;28;20049;-71
2022/05/25 09:33:47;;;;;;;2.92;1.85;;;19.90;99.90;;;;;;5056747;28;20033;-71
2022/05/25 09:36:30;;;;;;;7.00;2.47;;;20.10;99.90;;;;;;5062053;28;20380;-71
2022/05/25 09:39:31;;;;;;;2.53;1.65;;;20.20;99.90;;;;;;5062576;28;20037;-71
2022/05/25 09:41:59;;;;;;;8.65;2.40;;;20.20;99.90;;;;;;5086547;27;20052;-71
2022/05/25 09:44:26;;;;;;;9.45;1.60;;;20.20;99.90;;;;;;5057544;28;20039;-71
2022/05/25 09:47:01;;;;;;;5.30;1.92;;;20.20;99.90;;;;;;5061405;28;20048;-71
2022/05/25 09:49:44;;;;;;;3.28;1.65;;;20.30;99.90;;;;;;5056654;28;20025;-71
2022/05/25 09:52:43;;;;;;;6.88;1.83;;;20.20;99.90;;;;;;5062469;28;20087;-71
2022/05/25 09:55:29;;;;;;;4.88;1.23;;;20.20;99.90;;;;;;5049460;28;20086;-71
2022/05/25 09:58:00;;;;;;;15.32;2.42;;;20.30;99.90;;;;;;5062449;28;20067;-71
2022/05/25 10:00:59;;;;;;;3.22;1.90;;;20.10;99.90;;;;;;5090496;27;20040;-71
2022/05/25 10:03:34;;;;;;;9.32;2.20;;;19.90;99.90;;;;;;5061544;28;20067;-71
2022/05/25 10:06:01;;;;;;;5.38;1.70;;;19.60;99.90;;;;;;5064755;28;20128;-71
2022/05/25 10:08:36;;;;;;;2.75;1.65;;;19.40;99.90;;;;;;5059149;28;20101;-71
2022/05/25 10:11:32;;;;;;;3.72;1.85;;;19.40;99.90;;;;;;5051319;28;20124;-71
2022/05/25 10:14:26;;;;;;;4.20;1.83;;;19.20;99.90;;;;;;5061952;28;20474;-71
2022/05/25 10:16:54;;;;;;;6.90;1.55;;;19.20;99.90;;;;;;5057669;28;20428;-71
2022/05/25 10:19:21;;;;;;;4.95;1.38;;;19.10;99.90;;;;;;5062601;28;20047;-70
2022/05/25 10:21:55;;;;;;;3.03;1.75;;;19.20;99.90;;;;;;5094929;27;20032;-71
2022/05/25 10:24:31;;;;;;;7.70;1.35;;;19.40;99.90;;;;;;5063438;28;20040;-72
2022/05/25 10:27:00;;;;;;;10.68;1.88;;;19.60;99.90;;;;;;5056518;28;20051;-71
2022/05/25 10:38:28;;;;;;;18.52;2.20;;;19.70;99.90;;;;;;5044445;28;20045;-70
2022/05/25 10:40:58;;;;;;;8.02;2.13;;;19.90;99.90;;;;;;5059454;28;20479;-71
2022/05/25 10:43:30;;;;;;;18.50;2.15;;;20.10;99.90;;;;;;5062596;28;20379;-70
2022/05/25 10:46:00;;;;;;;15.30;2.47;;;20.30;99.90;;;;;;5061306;28;20040;-70
2022/05/25 10:48:41;;;;;;;9.15;2.67;;;20.30;99.90;;;;;;5061139;28;20047;-70
2022/05/25 10:51:13;;;;;;;14.95;2.50;;;20.40;99.90;;;;;;5058380;28;20068;-70
2022/05/25 10:57:03;;;;;;;12.13;2.78;;;20.30;99.90;;;;;;5091760;27;20663;-70
2022/05/25 10:59:45;;;;;;;6.30;2.55;;;20.10;99.90;;;;;;5057654;28;20044;-70
2022/05/25 11:02:35;;;;;;;9.75;2.35;;;20.10;99.90;;;;;;5059143;28;20047;-71
2022/05/25 11:05:22;;;;;;;19.52;4.35;;;20.40;99.90;;;;;;5064116;28;21303;-70
2022/05/25 11:07:52;;;;;;;7.57;2.72;;;20.40;99.90;;;;;;5060881;28;20068;-70
2022/05/25 11:10:47;;;;;;;17.95;3.22;;;20.40;99.90;;;;;;5052600;28;20043;-70
2022/05/25 11:13:37;;;;;;;4.85;3.47;;;20.30;99.90;;;;;;5058831;28;20048;-70
2022/05/25 11:16:20;;;;;;;9.38;3.22;;;20.20;99.90;;;;;;5061901;28;20036;-70
2022/05/25 11:19:25;;;;;;;5.22;3.00;;;20.10;99.90;;;;;;5053140;28;20051;-70
2022/05/25 11:21:53;;;;;;;15.07;3.53;;;20.00;99.90;;;;;;5042359;28;20645;-70
2022/05/25 11:24:29;;;;;;;15.25;3.33;;;19.90;99.90;;;;;;5059270;28;20036;-70
2022/05/25 11:27:19;;;;;;;6.95;2.78;;;19.80;99.90;;;;;;5086049;28;20047;-71
2022/05/25 11:30:23;;;;;;;8.18;3.80;;;19.60;99.90;;;;;;5059594;28;20387;-70
2022/05/25 11:33:10;;;;;;;6.80;4.13;;;19.50;99.90;;;;;;5050181;28;20048;-70
2022/05/25 11:35:46;;;;;;;8.05;3.72;;;19.40;99.90;;;;;;5056442;28;20048;-70
2022/05/25 11:38:17;;;;;;;12.68;4.07;;;19.10;99.90;;;;;;5058478;28;20048;-70
2022/05/25 11:41:32;;;;;;;10.98;4.13;;;19.00;99.90;;;;;;5060510;28;20059;-70
2022/05/25 11:44:18;;;;;;;11.32;4.28;;;18.80;99.90;;;;;;5010561;28;20112;-70
2022/05/25 11:46:46;;;;;;;7.53;4.45;;;18.60;99.90;;;;;;5012489;28;20040;-70
2022/05/25 11:49:29;;;;;;;9.27;3.90;;;18.40;99.90;;;;;;5045044;28;20040;-71
2022/05/25 11:52:20;;;;;;;11.48;4.60;;;18.10;99.90;;;;;;5059788;28;20047;-70
2022/05/25 11:55:22;;;;;;;10.82;4.70;;;17.90;99.90;;;;;;5057419;28;20087;-71
2022/05/25 11:58:20;;;;;;;13.25;5.43;;;17.50;99.90;;;;;;5058303;28;20146;-70
2022/05/25 12:01:24;;;;;;;6.40;5.78;;;17.10;99.90;;;;;;5039993;28;20057;-71
2022/05/25 12:04:01;;;;;;;6.13;4.82;;;17.10;99.90;;;;;;5061956;28;20080;-70
2022/05/25 12:06:55;;;;;;;6.07;4.22;;;17.10;99.90;;;;;;5061683;28;20098;-70
2022/05/25 12:09:21;;;;;;;7.13;4.15;;;17.40;99.90;;;;;;5063788;28;20381;-70
2022/05/25 12:12:11;;;;;;;7.60;4.00;;;17.60;99.90;;;;;;5061635;28;20040;-70
2022/05/25 12:15:03;;;;;;;5.88;4.75;;;17.70;99.90;;;;;;5062141;28;20039;-71
2022/05/25 12:17:40;;;;;;;8.20;4.63;;;17.80;99.90;;;;;;5059827;28;20123;-70
2022/05/25 12:20:11;;;;;;;6.82;4.50;;;18.00;99.90;;;;;;5063312;28;20508;-70
2022/05/25 12:22:42;;;;;;;4.90;4.35;;;18.10;99.90;;;;;;5066873;28;20036;-70
2022/05/25 12:25:10;;;;;;;7.63;4.65;;;18.10;99.90;;;;;;5061406;28;20136;-70
2022/05/25 12:27:44;;;;;;;6.30;4.78;;;18.20;99.90;;;;;;5061319;28;20056;-70
2022/05/25 12:30:32;;;;;;;5.93;4.88;;;18.20;99.90;;;;;;5058819;28;20119;-70
2022/05/25 12:33:00;;;;;;;5.10;3.70;;;18.10;99.90;;;;;;5086688;27;20076;-70
2022/05/25 12:35:29;;;;;;;8.23;3.70;;;18.10;99.90;;;;;;5061458;28;20040;-70
2022/05/25 12:37:55;;;;;;;4.90;3.30;;;18.20;99.90;;;;;;5062031;28;20041;-70
2022/05/25 12:40:30;;;;;;;7.28;3.97;;;18.10;99.90;;;;;;5059882;28;20052;-70
2022/05/25 12:42:56;;;;;;;6.13;4.10;;;18.20;99.90;;;;;;5070109;28;20040;-70
2022/05/25 12:48:31;;;;;;;;;;;18.40;99.90;;;;;;5062554;28;20040;-70
2022/05/25 12:51:05;;;;;;;7.60;1.15;;;18.50;99.90;;;;;;5057799;28;19923;-70
2022/05/25 12:53:40;;;;;;;9.55;0.77;;;18.70;99.90;;;;;;5058722;28;20510;-70
2022/05/25 12:56:32;;;;;;;5.27;0.50;;;18.70;99.90;;;;;;5058357;28;20052;-70
2022/05/25 12:59:12;;;;;;;6.15;0.75;;;18.80;99.90;;;;;;5046712;28;20055;-70
2022/05/25 13:02:02;;;;;;;6.60;1.08;;;18.90;99.90;;;;;;5061076;28;20048;-70
2022/05/25 13:04:47;;;;;;;8.82;1.10;;;19.00;99.90;;;;;;5056271;28;20185;-70
2022/05/25 13:07:21;;;;;;;3.05;0.70;;;19.20;99.90;;;;;;5064444;28;20033;-70
2022/05/25 13:09:48;;;;;;;9.77;1.05;;;19.30;99.90;;;;;;5061275;28;20512;-70
2022/05/25 13:12:35;;;;;;;5.82;0.60;;;19.30;99.90;;;;;;5062682;28;20033;-70
2022/05/25 13:15:01;;;;;;;3.58;0.73;;;19.30;99.90;;;;;;5063168;28;20133;-70
2022/05/25 13:17:46;;;;;;;7.88;1.10;;;19.10;99.90;;;;;;5061346;28;20388;-70
2022/05/25 13:20:46;;;;;;;6.10;0.80;;;19.10;99.90;;;;;;5060267;28;20071;-70
2022/05/25 13:23:51;;;;;;;3.28;0.47;;;19.10;99.90;;;;;;5060247;28;20044;-70
2022/05/25 13:26:23;;;;;;;5.80;0.80;;;19.00;99.90;;;;;;5058076;28;20028;-70
2022/05/25 13:28:58;;;;;;;3.92;0.70;;;19.00;99.90;;;;;;5060660;28;20119;-70
2022/05/25 13:31:23;;;;;;;7.83;1.10;;;19.10;99.90;;;;;;5093944;28;20052;-70
2022/05/25 13:33:49;;;;;;;5.25;0.63;;;19.40;99.90;;;;;;5058068;28;20048;-70
2022/05/25 13:36:16;;;;;;;9.02;1.42;;;19.70;99.90;;;;;;5060732;28;20041;-70
2022/05/25 13:38:45;;;;;;;12.80;0.73;;;19.90;99.90;;;;;;5060669;28;20486;-70
2022/05/25 13:41:20;;;;;;;5.43;0.65;;;19.90;99.90;;;;;;5062937;28;20043;-70
2022/05/25 13:43:58;;;;;;;8.00;1.00;;;19.70;99.90;;;;;;5059902;28;20036;-70